Pagrindinis puslapis
METAR-TAF:

METAR-TAF

Oro uostai :

El Pasas, Teksasas, Jungtinės Amerikos Valstijos

platuma: 31-48-40N, ilguma: 106-22-33W, Aukštis: 1206 m

Dabartinis oras

Ataskaita buvo paskelbta 51 minutes, ne 10:51 UTC
Vėjas 5 kt iš Rytų/Šiaurės Rytų
Temperatūra 23°C
Drėgmė 33%
Slėgis 1023 hPa
Matomumas: 16.1 km
Mažai debesys ne aukštis 13000 ft
Mažai debesys ne aukštis 18000 ft

METAR: KELP 291051Z 07005KT 10SM FEW130 FEW180 23/06 A3022 RMK AO2 SLP152 T02280056

Laikas: 06:42 (11:42 UTC)

Prognozė

Ataskaita buvo paskelbta 21 minutes, ne 11:21 UTC
Prognozė galioja nuo 29 metu 12 UTC su 30 metu 12 UTC
Vėjas 5 kt iš Rytų/Šiaurės Rytų
Matomumas: 10 km
Mažai debesys ne aukštis 13000 ft
Mažai debesys ne aukštis 18000 ft
Nuo 29 metu 1800 UTC
Vėjas 10 kt iš Pietryčių
Matomumas: 10 km
Mažai debesys ne aukštis 11000 ft
Nuo 30 metu 0600 UTC
Vėjas 7 kt iš Rytų/Pietryčių
Matomumas: 10 km
Giedras dangus

TAF: KELP 291121Z 2912/3012 07005KT P6SM FEW130 FEW180 FM291800 13010KT P6SM FEW110 FM300600 11007KT P6SM SKC

Orai ataskaitas ir orų prognozės (METAR, TAF).

turimą stotys yra geltonos ir raudonos taškus žemėlapyje.

Perkelti pele per norėdami pamatyti stoties vardą.

Tada spustelėkite, norėdami matyti oro stebėjimo ir prognozės.

Norėdami pakeisti žemėlapį: spustelėkite ant žalios mygtukų su juodo kryžiaus žemyn,; žalią mygtuką su brūkšneliu, jei norite nutolinti; arba žalių rodyklių gretimoms žemėlapius.


METAR-TAF: